Time;durP1;ratioP1;P1;durP2;ratioP2;P2;SDS_P1;SDS_P2;PMS_P1;PMS_P2;Temp;Humidity;BMP_temperature;BMP_pressure;BME280_temperature;BME280_humidity;BME280_pressure;Samples;Min_cycle;Max_cycle;Signal;HPM_P1;HPM_P2
2022/12/21 00:00:55;;;;;;;34.70;32.57;;;;;;;;;;5099748;28;20444;-82
2022/12/21 00:03:22;;;;;;;35.10;32.80;;;;;;;;;;5098268;28;20596;-81
2022/12/21 00:05:49;;;;;;;36.30;34.00;;;;;;;;;;5099039;28;20517;-81
2022/12/21 00:08:16;;;;;;;36.70;34.37;;;;;;;;;;5098608;28;20444;-83
2022/12/21 00:10:43;;;;;;;33.20;31.20;;;;;;;;;;5098855;28;20510;-82
2022/12/21 00:13:10;;;;;;;37.00;34.60;;;;;;;;;;5097778;28;20903;-81
2022/12/21 00:15:38;;;;;;;35.50;33.10;;;;;;;;;;5097807;28;20450;-81
2022/12/21 00:18:05;;;;;;;36.07;33.77;;;;;;;;;;5098922;28;20479;-81
2022/12/21 00:20:32;;;;;;;36.40;33.90;;;;;;;;;;5099156;28;20824;-82
2022/12/21 00:22:59;;;;;;;35.20;33.03;;;;;;;;;;5097973;28;20468;-83
2022/12/21 00:25:26;;;;;;;35.67;33.20;;;;;;;;;;5098161;28;20405;-81
2022/12/21 00:27:53;;;;;;;35.57;33.37;;;;;;;;;;5098787;28;20774;-81
2022/12/21 00:30:20;;;;;;;37.00;34.40;;;;;;;;;;5098372;28;20470;-81
2022/12/21 00:32:49;;;;;;;37.27;34.67;;;;;;;;;;5098564;28;20475;-82
2022/12/21 00:35:16;;;;;;;38.20;35.70;;;;;;;;;;5097988;28;20428;-81
2022/12/21 00:37:45;;;;;;;37.80;35.20;;;;;;;;;;5097872;28;20498;-82
2022/12/21 00:40:12;;;;;;;37.57;35.17;;;;;;;;;;5098213;28;20419;-82
2022/12/21 00:42:39;;;;;;;37.50;34.90;;;;;;;;;;5097787;28;20512;-82
2022/12/21 00:45:07;;;;;;;37.87;35.30;;;;;;;;;;5098053;28;20465;-82
2022/12/21 00:47:34;;;;;;;37.93;35.23;;;;;;;;;;5098492;28;20501;-82
2022/12/21 00:50:02;;;;;;;35.83;33.63;;;;;;;;;;5098559;28;20445;-81
2022/12/21 00:52:29;;;;;;;38.87;35.93;;;;;;;;;;5098321;28;20420;-81
2022/12/21 00:54:56;;;;;;;37.87;35.10;;;;;;;;;;5097548;28;20411;-83
2022/12/21 00:57:23;;;;;;;37.90;35.43;;;;;;;;;;5098439;28;20500;-81
2022/12/21 00:59:50;;;;;;;39.67;36.67;;;;;;;;;;5098518;28;20490;-82
2022/12/21 01:02:17;;;;;;;37.30;34.90;;;;;;;;;;5097722;28;20498;-81
2022/12/21 01:04:44;;;;;;;40.40;37.60;;;;;;;;;;5097687;28;20452;-81
2022/12/21 01:07:12;;;;;;;39.20;36.50;;;;;;;;;;5097615;28;20550;-81
2022/12/21 01:09:39;;;;;;;41.70;38.57;;;;;;;;;;5098509;28;20408;-82
2022/12/21 01:12:06;;;;;;;41.47;38.27;;;;;;;;;;5098700;28;20468;-83
2022/12/21 01:14:34;;;;;;;40.00;36.90;;;;;;;;;;5097184;28;20434;-82
2022/12/21 01:17:00;;;;;;;40.43;37.53;;;;;;;;;;5097614;28;20496;-81
2022/12/21 01:19:27;;;;;;;39.40;36.57;;;;;;;;;;5097919;28;20473;-81
2022/12/21 01:21:54;;;;;;;41.73;38.67;;;;;;;;;;5097649;28;20444;-81
2022/12/21 01:24:23;;;;;;;43.83;40.20;;;;;;;;;;5097417;28;20484;-81
2022/12/21 01:26:51;;;;;;;40.57;37.23;;;;;;;;;;5097279;28;20494;-81
2022/12/21 01:29:18;;;;;;;40.30;37.30;;;;;;;;;;5097650;28;20825;-81
2022/12/21 01:31:45;;;;;;;42.20;38.80;;;;;;;;;;5097749;28;20412;-81
2022/12/21 01:34:12;;;;;;;42.40;39.10;;;;;;;;;;5096920;28;20932;-82
2022/12/21 01:36:39;;;;;;;44.97;41.27;;;;;;;;;;5097713;28;20525;-83
2022/12/21 01:39:06;;;;;;;42.90;39.50;;;;;;;;;;5097800;28;20536;-81
2022/12/21 01:41:34;;;;;;;45.10;40.90;;;;;;;;;;5097501;28;21045;-83
2022/12/21 01:44:02;;;;;;;47.07;43.10;;;;;;;;;;5097269;28;20477;-81
2022/12/21 01:46:30;;;;;;;49.23;45.37;;;;;;;;;;5097540;28;20525;-81
2022/12/21 01:49:05;;;;;;;45.47;41.10;;;;;;;;;;5097253;28;20436;-82
2022/12/21 01:51:34;;;;;;;46.73;42.70;;;;;;;;;;5097113;28;20410;-82
2022/12/21 01:54:03;;;;;;;45.77;41.87;;;;;;;;;;5096574;28;20452;-83
2022/12/21 01:56:32;;;;;;;47.70;43.60;;;;;;;;;;5097831;28;20503;-81
2022/12/21 01:59:04;;;;;;;47.30;42.87;;;;;;;;;;5097252;28;20863;-81
2022/12/21 02:01:31;;;;;;;47.37;43.37;;;;;;;;;;5097326;28;20407;-82
2022/12/21 02:03:58;;;;;;;49.47;44.67;;;;;;;;;;5096927;28;20449;-82
2022/12/21 02:06:27;;;;;;;49.10;44.60;;;;;;;;;;5097447;28;20471;-83
2022/12/21 02:08:55;;;;;;;49.73;44.93;;;;;;;;;;5097254;28;20494;-81
2022/12/21 02:11:22;;;;;;;51.10;46.40;;;;;;;;;;5097482;28;20427;-82
2022/12/21 02:13:49;;;;;;;51.50;45.63;;;;;;;;;;5097061;28;20456;-83
2022/12/21 02:16:22;;;;;;;51.83;46.50;;;;;;;;;;5096605;28;20433;-82
2022/12/21 02:18:56;;;;;;;50.83;46.13;;;;;;;;;;5097264;28;20525;-84
2022/12/21 02:21:25;;;;;;;52.83;47.23;;;;;;;;;;5097689;28;20415;-81
2022/12/21 02:24:16;;;;;;;54.23;48.40;;;;;;;;;;5096977;28;20472;-82
2022/12/21 02:26:57;;;;;;;66.27;48.87;;;;;;;;;;5096928;28;20439;-82
2022/12/21 02:29:39;;;;;;;58.80;52.27;;;;;;;;;;5097081;28;20392;-82
2022/12/21 02:32:13;;;;;;;52.67;46.87;;;;;;;;;;5097148;28;20424;-82
2022/12/21 02:34:43;;;;;;;64.87;50.10;;;;;;;;;;5096752;28;20407;-82
2022/12/21 02:37:15;;;;;;;51.63;44.80;;;;;;;;;;5096979;28;20517;-83
2022/12/21 02:39:46;;;;;;;52.87;46.80;;;;;;;;;;5099409;28;20960;-82
2022/12/21 02:44:12;;;;;;;60.10;47.10;;;;;;;;;;5101222;28;20433;-82
2022/12/21 02:45:05;;;;;;;49.20;43.97;;;;;;;;;;5099759;28;20474;-82
2022/12/21 02:47:36;;;;;;;52.17;46.47;;;;;;;;;;5100592;28;20862;-83
2022/12/21 02:50:04;;;;;;;49.90;44.80;;;;;;;;;;5100749;28;20432;-82
2022/12/21 02:52:35;;;;;;;51.10;45.60;;;;;;;;;;5101155;28;20478;-82
2022/12/21 02:55:03;;;;;;;64.00;46.30;;;;;;;;;;5100591;28;20430;-83
2022/12/21 02:57:34;;;;;;;52.13;46.70;;;;;;;;;;5100523;28;20489;-82
2022/12/21 03:00:03;;;;;;;58.83;46.30;;;;;;;;;;5101131;28;20456;-81
2022/12/21 03:02:41;;;;;;;53.60;44.43;;;;;;;;;;5100672;28;20415;-82
2022/12/21 03:05:29;;;;;;;52.70;46.63;;;;;;;;;;5100208;28;20459;-82
2022/12/21 03:07:59;;;;;;;54.00;45.20;;;;;;;;;;5100051;28;20433;-81
2022/12/21 03:10:32;;;;;;;56.87;46.90;;;;;;;;;;5100172;28;20901;-82
2022/12/21 03:13:03;;;;;;;78.53;48.27;;;;;;;;;;5099418;28;20404;-83
2022/12/21 03:15:34;;;;;;;58.27;44.37;;;;;;;;;;5100196;28;20444;-82
2022/12/21 03:18:09;;;;;;;62.00;45.60;;;;;;;;;;5099536;28;20777;-82
2022/12/21 03:20:39;;;;;;;64.17;46.40;;;;;;;;;;5099929;28;20481;-83
2022/12/21 03:23:08;;;;;;;63.60;46.20;;;;;;;;;;5099530;28;20419;-82
2022/12/21 03:25:39;;;;;;;57.87;45.07;;;;;;;;;;5099764;28;20427;-83
2022/12/21 03:28:08;;;;;;;56.20;44.43;;;;;;;;;;5100000;28;20432;-81
2022/12/21 03:30:47;;;;;;;54.53;44.57;;;;;;;;;;5099575;28;20430;-82
2022/12/21 03:33:17;;;;;;;56.17;46.37;;;;;;;;;;5099641;28;20510;-83
2022/12/21 03:35:46;;;;;;;54.97;46.17;;;;;;;;;;5099750;28;20427;-82
2022/12/21 03:38:15;;;;;;;60.33;44.80;;;;;;;;;;5099952;28;20553;-82
2022/12/21 03:40:44;;;;;;;51.10;42.70;;;;;;;;;;5099795;28;20457;-81
2022/12/21 03:43:13;;;;;;;93.77;49.63;;;;;;;;;;5099109;28;20457;-83
2022/12/21 03:45:44;;;;;;;67.03;47.13;;;;;;;;;;5099861;28;20496;-82
2022/12/21 03:48:14;;;;;;;68.33;44.93;;;;;;;;;;5099422;28;20482;-82
2022/12/21 03:50:44;;;;;;;61.60;45.70;;;;;;;;;;5098522;28;20420;-82
2022/12/21 03:53:18;;;;;;;92.90;50.30;;;;;;;;;;5098936;28;20508;-83
2022/12/21 03:55:46;;;;;;;92.37;47.13;;;;;;;;;;5099457;28;20990;-81
2022/12/21 03:58:13;;;;;;;70.10;45.13;;;;;;;;;;5099058;28;20451;-83
2022/12/21 04:00:42;;;;;;;81.50;48.10;;;;;;;;;;5099236;28;20411;-82
2022/12/21 04:03:12;;;;;;;90.80;49.43;;;;;;;;;;5098238;28;20903;-82
2022/12/21 04:05:41;;;;;;;80.10;47.53;;;;;;;;;;5098771;28;20513;-82
2022/12/21 04:08:10;;;;;;;79.83;49.40;;;;;;;;;;5099374;28;20441;-82
2022/12/21 04:10:37;;;;;;;55.97;44.87;;;;;;;;;;5099427;28;20427;-83
2022/12/21 04:13:03;;;;;;;80.20;47.03;;;;;;;;;;5098709;28;20478;-83
2022/12/21 04:18:11;;;;;;;79.27;47.97;;;;;;;;;;5098008;28;20447;-82
2022/12/21 04:20:37;;;;;;;79.27;48.20;;;;;;;;;;5098448;28;20423;-83
2022/12/21 04:28:51;;;;;;;56.17;42.77;;;;;;;;;;4995328;28;20494;-83
2022/12/21 04:31:18;;;;;;;128.10;49.57;;;;;;;;;;5072194;28;20431;-82
2022/12/21 04:33:45;;;;;;;67.47;46.00;;;;;;;;;;5098292;28;20864;-82
2022/12/21 04:38:57;;;;;;;63.77;48.57;;;;;;;;;;5098706;28;20830;-82
2022/12/21 04:41:25;;;;;;;73.73;47.00;;;;;;;;;;5098085;28;20441;-82
2022/12/21 04:43:52;;;;;;;69.70;46.80;;;;;;;;;;5098181;28;20461;-82
2022/12/21 04:46:19;;;;;;;74.40;47.07;;;;;;;;;;5098578;28;20853;-83
2022/12/21 04:48:47;;;;;;;62.00;45.90;;;;;;;;;;5098547;28;20437;-82
2022/12/21 04:51:15;;;;;;;58.90;43.93;;;;;;;;;;5098743;28;20495;-82
2022/12/21 04:53:42;;;;;;;84.37;47.33;;;;;;;;;;5097914;28;20486;-82
2022/12/21 04:56:09;;;;;;;79.17;47.47;;;;;;;;;;5098148;28;20473;-82
2022/12/21 04:58:37;;;;;;;119.83;48.20;;;;;;;;;;5098624;28;20542;-82
2022/12/21 05:01:08;;;;;;;73.40;44.80;;;;;;;;;;5098061;28;20937;-82
2022/12/21 05:03:35;;;;;;;78.83;47.80;;;;;;;;;;5097931;28;20453;-81
2022/12/21 05:06:02;;;;;;;93.57;46.80;;;;;;;;;;5098405;28;20461;-83
2022/12/21 05:08:30;;;;;;;67.13;44.13;;;;;;;;;;5098333;28;20408;-82
2022/12/21 05:10:57;;;;;;;98.10;49.00;;;;;;;;;;5098495;28;20456;-82
2022/12/21 05:13:24;;;;;;;84.60;46.30;;;;;;;;;;5098052;28;20456;-81
2022/12/21 05:15:52;;;;;;;96.23;48.10;;;;;;;;;;5099025;28;20538;-83
2022/12/21 05:18:19;;;;;;;153.77;48.30;;;;;;;;;;5098174;28;20490;-83
2022/12/21 05:20:46;;;;;;;284.50;50.07;;;;;;;;;;5098367;28;20423;-82
2022/12/21 05:23:13;;;;;;;212.43;49.57;;;;;;;;;;5098188;28;20445;-82
2022/12/21 05:25:40;;;;;;;304.13;51.60;;;;;;;;;;5098026;28;20443;-81
2022/12/21 05:28:07;;;;;;;393.27;58.70;;;;;;;;;;5098520;28;20449;-82
2022/12/21 05:30:34;;;;;;;200.73;46.17;;;;;;;;;;5098622;28;20479;-82
2022/12/21 05:33:03;;;;;;;271.97;49.43;;;;;;;;;;5097767;28;20426;-83
2022/12/21 05:35:30;;;;;;;418.57;60.60;;;;;;;;;;5097951;28;20431;-82
2022/12/21 05:37:57;;;;;;;213.37;49.53;;;;;;;;;;5098194;28;20452;-82
2022/12/21 05:40:24;;;;;;;241.83;52.43;;;;;;;;;;5097189;28;20463;-82
2022/12/21 05:42:51;;;;;;;205.87;47.50;;;;;;;;;;5098357;28;20409;-82
2022/12/21 05:45:18;;;;;;;168.07;47.97;;;;;;;;;;5097630;28;20960;-82
2022/12/21 05:47:46;;;;;;;201.97;48.37;;;;;;;;;;5098448;28;20432;-82
2022/12/21 05:50:14;;;;;;;186.13;48.97;;;;;;;;;;5098506;28;20433;-82
2022/12/21 05:52:41;;;;;;;255.97;51.70;;;;;;;;;;5098835;28;20464;-83
2022/12/21 05:55:08;;;;;;;141.77;45.17;;;;;;;;;;5098919;28;20448;-83
2022/12/21 05:57:37;;;;;;;168.53;46.00;;;;;;;;;;5098842;28;20430;-81
2022/12/21 06:00:05;;;;;;;160.43;49.83;;;;;;;;;;5098523;28;20525;-82
2022/12/21 06:02:33;;;;;;;312.23;54.80;;;;;;;;;;5097904;28;20469;-82
2022/12/21 06:04:59;;;;;;;151.63;49.17;;;;;;;;;;5098849;28;20415;-83
2022/12/21 06:07:28;;;;;;;114.83;48.53;;;;;;;;;;5098351;28;20484;-83
2022/12/21 06:09:55;;;;;;;126.03;48.80;;;;;;;;;;5099063;28;20423;-83
2022/12/21 06:12:22;;;;;;;131.63;48.67;;;;;;;;;;5098979;28;20449;-82
2022/12/21 06:14:49;;;;;;;150.47;50.77;;;;;;;;;;5100696;28;20419;-82
2022/12/21 06:17:16;;;;;;;115.13;50.13;;;;;;;;;;5102540;28;20452;-81
2022/12/21 06:19:43;;;;;;;97.47;51.90;;;;;;;;;;5103034;28;20850;-82
2022/12/21 06:22:10;;;;;;;87.13;47.90;;;;;;;;;;5102695;28;20455;-82
2022/12/21 06:24:38;;;;;;;88.40;47.60;;;;;;;;;;5101212;28;20437;-82
2022/12/21 06:27:06;;;;;;;114.47;49.90;;;;;;;;;;5102912;28;20526;-82
2022/12/21 06:29:33;;;;;;;156.73;54.70;;;;;;;;;;5102369;28;20464;-82
2022/12/21 06:32:00;;;;;;;162.97;52.40;;;;;;;;;;5101850;28;20411;-83
2022/12/21 06:34:27;;;;;;;108.03;52.37;;;;;;;;;;5101156;28;20501;-84
2022/12/21 06:36:54;;;;;;;289.20;56.60;;;;;;;;;;5102017;28;20535;-82
2022/12/21 06:39:21;;;;;;;239.80;55.00;;;;;;;;;;5101624;28;20454;-82
2022/12/21 06:41:50;;;;;;;138.20;45.77;;;;;;;;;;5101261;28;20459;-82
2022/12/21 06:44:17;;;;;;;150.50;48.23;;;;;;;;;;5100939;28;20940;-82
2022/12/21 06:46:44;;;;;;;154.87;51.00;;;;;;;;;;5101724;28;20471;-82
2022/12/21 06:49:11;;;;;;;273.67;55.00;;;;;;;;;;5101378;28;20940;-83
2022/12/21 06:51:38;;;;;;;228.57;53.70;;;;;;;;;;5101565;28;20419;-83
2022/12/21 06:54:06;;;;;;;119.87;48.77;;;;;;;;;;5101070;28;20429;-82
2022/12/21 06:56:33;;;;;;;115.27;45.37;;;;;;;;;;5101052;28;20852;-82
2022/12/21 06:59:02;;;;;;;122.47;47.33;;;;;;;;;;5100403;28;20458;-83
2022/12/21 07:01:30;;;;;;;77.00;45.73;;;;;;;;;;5101228;28;20834;-82
2022/12/21 07:03:57;;;;;;;107.03;46.57;;;;;;;;;;5100736;28;20416;-84
2022/12/21 07:06:25;;;;;;;90.50;46.70;;;;;;;;;;5100803;28;20842;-82
2022/12/21 07:08:52;;;;;;;90.80;48.00;;;;;;;;;;5100610;28;20892;-82
2022/12/21 07:11:20;;;;;;;240.20;51.57;;;;;;;;;;5101386;28;20453;-82
2022/12/21 07:13:48;;;;;;;96.40;43.80;;;;;;;;;;5099739;28;20473;-82
2022/12/21 07:16:17;;;;;;;150.67;46.80;;;;;;;;;;5100683;28;20514;-82
2022/12/21 07:18:44;;;;;;;103.03;45.87;;;;;;;;;;5100353;28;20448;-83
2022/12/21 07:21:13;;;;;;;86.50;46.57;;;;;;;;;;5100641;28;20423;-83
2022/12/21 07:23:41;;;;;;;218.23;48.37;;;;;;;;;;5099727;28;20461;-82
2022/12/21 07:26:08;;;;;;;174.70;44.70;;;;;;;;;;5099979;28;20485;-82
2022/12/21 07:28:35;;;;;;;273.43;48.50;;;;;;;;;;5100411;28;20471;-82
2022/12/21 07:31:06;;;;;;;83.30;41.77;;;;;;;;;;5100704;28;20419;-82
2022/12/21 07:33:35;;;;;;;119.73;43.97;;;;;;;;;;5099415;28;20824;-83
2022/12/21 07:36:02;;;;;;;63.10;35.70;;;;;;;;;;5100548;28;21022;-82
2022/12/21 07:38:29;;;;;;;76.13;37.50;;;;;;;;;;5099917;28;20452;-82
2022/12/21 07:40:57;;;;;;;60.17;37.60;;;;;;;;;;5100032;28;20459;-83
2022/12/21 07:43:24;;;;;;;47.57;36.57;;;;;;;;;;5099494;28;20514;-82
2022/12/21 07:45:51;;;;;;;43.00;35.17;;;;;;;;;;5099725;28;20447;-81
2022/12/21 07:48:18;;;;;;;53.43;35.57;;;;;;;;;;5099901;28;20470;-84
2022/12/21 07:50:48;;;;;;;96.73;38.23;;;;;;;;;;5099320;28;20419;-82
2022/12/21 07:53:15;;;;;;;87.03;35.67;;;;;;;;;;5098556;28;20440;-81
2022/12/21 07:55:42;;;;;;;36.93;33.43;;;;;;;;;;5098632;28;20525;-82
2022/12/21 07:58:10;;;;;;;35.40;32.30;;;;;;;;;;5098808;28;20457;-81
2022/12/21 08:00:38;;;;;;;39.07;34.93;;;;;;;;;;5098857;28;20506;-82
2022/12/21 08:03:05;;;;;;;50.20;35.13;;;;;;;;;;5098313;28;20996;-82
2022/12/21 08:05:32;;;;;;;38.17;34.07;;;;;;;;;;5098202;28;20468;-82
2022/12/21 08:08:02;;;;;;;39.03;34.77;;;;;;;;;;5098379;28;20419;-81
2022/12/21 08:10:29;;;;;;;95.30;38.07;;;;;;;;;;5098195;28;20909;-82
2022/12/21 08:12:56;;;;;;;51.00;35.23;;;;;;;;;;5097733;28;20479;-81
2022/12/21 08:15:23;;;;;;;42.00;34.40;;;;;;;;;;5097606;28;20445;-83
2022/12/21 08:17:51;;;;;;;53.40;42.17;;;;;;;;;;5099122;28;20815;-83
2022/12/21 08:20:18;;;;;;;59.20;41.73;;;;;;;;;;5099383;28;20462;-81
2022/12/21 08:22:45;;;;;;;93.80;42.03;;;;;;;;;;5098544;28;20456;-82
2022/12/21 08:25:14;;;;;;;196.23;40.43;;;;;;;;;;5097996;28;20419;-81
2022/12/21 08:27:41;;;;;;;170.43;42.57;;;;;;;;;;5099048;28;20434;-82
2022/12/21 08:30:09;;;;;;;44.50;34.73;;;;;;;;;;5098266;28;20444;-82
2022/12/21 08:32:36;;;;;;;64.27;34.60;;;;;;;;;;5098197;28;20976;-82
2022/12/21 08:35:03;;;;;;;110.80;39.83;;;;;;;;;;5098004;28;20480;-81
2022/12/21 08:37:37;;;;;;;41.80;34.80;;;;;;;;;;5097757;28;20473;-82
2022/12/21 08:40:05;;;;;;;52.00;35.53;;;;;;;;;;5097964;28;20461;-83
2022/12/21 08:42:33;;;;;;;36.10;33.10;;;;;;;;;;5098364;28;20448;-81
2022/12/21 08:45:00;;;;;;;83.80;36.43;;;;;;;;;;5097905;28;20452;-82
2022/12/21 08:47:27;;;;;;;65.63;34.53;;;;;;;;;;5097853;28;20469;-82
2022/12/21 08:49:54;;;;;;;50.40;33.57;;;;;;;;;;5098131;28;20399;-81
2022/12/21 08:52:21;;;;;;;52.97;35.10;;;;;;;;;;5098070;28;20422;-82
2022/12/21 08:54:48;;;;;;;78.47;36.13;;;;;;;;;;5095817;28;20438;-86
2022/12/21 08:57:15;;;;;;;83.60;34.30;;;;;;;;;;5099740;28;20468;-81
2022/12/21 08:59:43;;;;;;;48.10;33.07;;;;;;;;;;5098300;28;20477;-82
2022/12/21 09:02:11;;;;;;;52.50;33.60;;;;;;;;;;5097803;28;20480;-79
2022/12/21 09:04:38;;;;;;;45.20;34.07;;;;;;;;;;5095799;28;20423;-80
2022/12/21 09:07:06;;;;;;;47.50;33.13;;;;;;;;;;5094272;28;20508;-76
2022/12/21 09:09:33;;;;;;;38.10;33.93;;;;;;;;;;5093461;28;20460;-77
2022/12/21 09:12:00;;;;;;;71.20;33.37;;;;;;;;;;5093260;28;20423;-77
2022/12/21 09:14:29;;;;;;;41.47;31.90;;;;;;;;;;5094118;28;20654;-80
2022/12/21 09:16:57;;;;;;;34.80;31.23;;;;;;;;;;5095908;28;20496;-81
2022/12/21 09:19:25;;;;;;;43.97;32.63;;;;;;;;;;5095693;28;20500;-80
2022/12/21 09:21:52;;;;;;;36.00;32.67;;;;;;;;;;5093220;28;20451;-76
2022/12/21 09:24:19;;;;;;;34.60;31.70;;;;;;;;;;5091978;28;20509;-76
2022/12/21 09:26:46;;;;;;;36.23;33.03;;;;;;;;;;5092907;28;20467;-76
2022/12/21 09:29:13;;;;;;;33.90;31.03;;;;;;;;;;5093086;28;20489;-77
2022/12/21 09:31:40;;;;;;;36.07;32.87;;;;;;;;;;5092788;28;20515;-76
2022/12/21 09:34:08;;;;;;;35.77;32.63;;;;;;;;;;5092397;28;20473;-77
2022/12/21 09:36:35;;;;;;;35.03;31.73;;;;;;;;;;5092862;28;20439;-76
2022/12/21 09:39:02;;;;;;;37.63;34.13;;;;;;;;;;5092921;28;20433;-76
2022/12/21 09:41:34;;;;;;;36.17;32.90;;;;;;;;;;5092513;28;20967;-77
2022/12/21 09:44:08;;;;;;;36.37;33.07;;;;;;;;;;5092028;28;20510;-75
2022/12/21 09:46:36;;;;;;;37.07;33.60;;;;;;;;;;5092591;28;20514;-77
2022/12/21 09:49:06;;;;;;;39.73;35.57;;;;;;;;;;5095346;28;20495;-77
2022/12/21 09:51:37;;;;;;;38.90;35.00;;;;;;;;;;5096987;28;20518;-76
2022/12/21 09:54:05;;;;;;;42.37;35.67;;;;;;;;;;5096154;28;20944;-78
2022/12/21 09:56:32;;;;;;;36.30;32.80;;;;;;;;;;5096822;28;20472;-76
2022/12/21 09:59:02;;;;;;;40.07;35.50;;;;;;;;;;5096742;28;20423;-77
2022/12/21 10:01:42;;;;;;;50.67;38.70;;;;;;;;;;5096792;28;20548;-79
2022/12/21 10:04:17;;;;;;;44.80;37.60;;;;;;;;;;5098489;28;20535;-79
2022/12/21 10:07:01;;;;;;;71.17;35.40;;;;;;;;;;5098917;28;20456;-79
2022/12/21 10:09:43;;;;;;;51.83;34.70;;;;;;;;;;5096179;28;20432;-76
2022/12/21 10:12:14;;;;;;;111.07;38.17;;;;;;;;;;5096766;28;20421;-76
2022/12/21 10:14:48;;;;;;;59.03;34.10;;;;;;;;;;5095901;28;20423;-76
2022/12/21 10:17:19;;;;;;;87.63;36.00;;;;;;;;;;5095671;28;20452;-76
2022/12/21 10:19:54;;;;;;;67.17;35.43;;;;;;;;;;5096154;28;20443;-77
2022/12/21 10:22:25;;;;;;;86.17;35.40;;;;;;;;;;5096392;28;20402;-76
2022/12/21 10:24:54;;;;;;;72.53;35.23;;;;;;;;;;5095661;28;20417;-75
2022/12/21 10:27:25;;;;;;;86.43;35.97;;;;;;;;;;5096049;28;20885;-77
2022/12/21 10:29:54;;;;;;;83.27;34.60;;;;;;;;;;5096317;28;20747;-76
2022/12/21 10:32:21;;;;;;;66.00;38.27;;;;;;;;;;5096015;28;20903;-82
2022/12/21 10:34:49;;;;;;;69.60;39.30;;;;;;;;;;5096229;28;20506;-76
2022/12/21 10:37:17;;;;;;;51.40;35.87;;;;;;;;;;5103172;28;20460;-77
2022/12/21 10:39:44;;;;;;;46.47;36.80;;;;;;;;;;5119844;28;20482;-77
2022/12/21 10:42:22;;;;;;;49.77;35.20;;;;;;;;;;5116392;28;20451;-76
2022/12/21 10:44:50;;;;;;;60.07;35.23;;;;;;;;;;5114888;28;20459;-76
2022/12/21 10:47:18;;;;;;;66.50;36.47;;;;;;;;;;5115422;28;21161;-76
2022/12/21 10:49:49;;;;;;;45.67;34.57;;;;;;;;;;5115911;28;20422;-76
2022/12/21 10:52:35;;;;;;;66.53;35.90;;;;;;;;;;5116262;28;20410;-76
2022/12/21 10:55:02;;;;;;;80.50;35.33;;;;;;;;;;5115625;28;20418;-77
2022/12/21 10:57:33;;;;;;;39.73;33.20;;;;;;;;;;5116013;28;20539;-76
2022/12/21 11:00:04;;;;;;;42.33;34.90;;;;;;;;;;5115419;28;20429;-76
2022/12/21 11:02:34;;;;;;;49.43;35.30;;;;;;;;;;5116206;28;20535;-75
2022/12/21 11:05:01;;;;;;;51.80;35.23;;;;;;;;;;5115421;28;20511;-76
2022/12/21 11:07:29;;;;;;;53.73;36.20;;;;;;;;;;5116497;28;20467;-78
2022/12/21 11:09:57;;;;;;;41.73;34.33;;;;;;;;;;5118126;28;20407;-78
2022/12/21 11:12:25;;;;;;;47.50;33.63;;;;;;;;;;5117543;28;20455;-78
2022/12/21 11:14:54;;;;;;;37.47;33.87;;;;;;;;;;5114954;28;20920;-75
2022/12/21 11:17:23;;;;;;;42.93;36.13;;;;;;;;;;5115590;28;20829;-76
2022/12/21 11:19:51;;;;;;;45.33;35.70;;;;;;;;;;5115645;28;20503;-75
2022/12/21 11:22:21;;;;;;;44.40;35.87;;;;;;;;;;5115518;28;20458;-77
2022/12/21 11:24:49;;;;;;;53.10;36.13;;;;;;;;;;5114751;28;20497;-76
2022/12/21 11:27:23;;;;;;;41.40;32.63;;;;;;;;;;5115481;28;20459;-76
2022/12/21 11:29:51;;;;;;;37.23;33.20;;;;;;;;;;5115625;28;20452;-76
2022/12/21 11:32:21;;;;;;;36.67;32.73;;;;;;;;;;5116022;28;20440;-78
2022/12/21 11:34:49;;;;;;;37.33;33.67;;;;;;;;;;5115420;28;20430;-78
2022/12/21 11:37:24;;;;;;;38.00;32.70;;;;;;;;;;5115718;28;20496;-75
2022/12/21 11:39:51;;;;;;;40.63;36.47;;;;;;;;;;5115327;28;20459;-76
2022/12/21 11:42:19;;;;;;;36.93;33.33;;;;;;;;;;5115141;28;20458;-76
2022/12/21 11:44:46;;;;;;;36.90;33.50;;;;;;;;;;5114398;28;20490;-76
2022/12/21 11:47:22;;;;;;;36.00;32.70;;;;;;;;;;5114816;28;20478;-76
2022/12/21 11:50:07;;;;;;;35.43;31.90;;;;;;;;;;5115124;28;20411;-75
2022/12/21 11:52:44;;;;;;;51.30;45.87;;;;;;;;;;5114938;28;20914;-76
2022/12/21 11:55:14;;;;;;;37.03;33.33;;;;;;;;;;5114372;28;20435;-75
2022/12/21 11:57:46;;;;;;;36.17;32.63;;;;;;;;;;5115014;28;20492;-76
2022/12/21 12:00:15;;;;;;;38.53;34.43;;;;;;;;;;5114561;28;20418;-76
2022/12/21 12:02:49;;;;;;;36.93;31.40;;;;;;;;;;5114550;28;21007;-75
2022/12/21 12:05:22;;;;;;;33.07;29.77;;;;;;;;;;5114289;28;20414;-77
2022/12/21 12:07:55;;;;;;;33.30;30.07;;;;;;;;;;5114421;28;20797;-75
2022/12/21 12:10:38;;;;;;;31.67;28.27;;;;;;;;;;5114396;28;20457;-76
2022/12/21 12:13:08;;;;;;;34.80;31.10;;;;;;;;;;5112565;28;20410;-75
2022/12/21 12:15:42;;;;;;;34.97;31.70;;;;;;;;;;5114637;28;20471;-75
2022/12/21 12:18:22;;;;;;;30.83;28.13;;;;;;;;;;5114515;28;20407;-75
2022/12/21 12:20:58;;;;;;;33.73;30.37;;;;;;;;;;5114390;28;20448;-76
2022/12/21 12:23:32;;;;;;;33.17;30.37;;;;;;;;;;5113768;28;20434;-76
2022/12/21 12:26:04;;;;;;;31.43;28.57;;;;;;;;;;5113756;28;20525;-76
2022/12/21 12:28:43;;;;;;;31.40;28.80;;;;;;;;;;5114017;28;20846;-76
2022/12/21 12:31:16;;;;;;;29.33;26.93;;;;;;;;;;5113994;28;20489;-75
2022/12/21 12:34:00;;;;;;;29.57;27.37;;;;;;;;;;5130696;27;20515;-77
2022/12/21 12:36:31;;;;;;;27.47;25.37;;;;;;;;;;5130482;27;20837;-76
2022/12/21 12:39:03;;;;;;;28.80;26.50;;;;;;;;;;5131261;28;20402;-76
2022/12/21 12:41:33;;;;;;;30.87;28.40;;;;;;;;;;5131307;28;20418;-76
2022/12/21 12:44:03;;;;;;;29.40;27.07;;;;;;;;;;5130838;27;20421;-75
2022/12/21 12:46:37;;;;;;;28.83;26.43;;;;;;;;;;5131233;27;20519;-77
2022/12/21 12:49:13;;;;;;;31.03;28.33;;;;;;;;;;5131056;27;20443;-75
2022/12/21 12:51:41;;;;;;;32.67;28.80;;;;;;;;;;5130176;27;20440;-75
2022/12/21 12:54:11;;;;;;;32.53;29.73;;;;;;;;;;5130035;27;20897;-76
2022/12/21 12:56:43;;;;;;;29.33;26.63;;;;;;;;;;5130643;27;21031;-76
2022/12/21 12:59:15;;;;;;;25.83;23.73;;;;;;;;;;5130702;27;20504;-76
2022/12/21 13:01:44;;;;;;;30.80;28.33;;;;;;;;;;5131200;28;20446;-80
2022/12/21 13:04:23;;;;;;;29.80;27.13;;;;;;;;;;5134132;27;20450;-80
2022/12/21 13:06:53;;;;;;;27.43;25.20;;;;;;;;;;5133083;27;20547;-74
2022/12/21 13:09:24;;;;;;;27.67;25.20;;;;;;;;;;5130350;27;20914;-75
2022/12/21 13:11:55;;;;;;;29.40;26.67;;;;;;;;;;5130499;28;20442;-74
2022/12/21 13:14:28;;;;;;;28.10;25.40;;;;;;;;;;5129293;28;20490;-75
2022/12/21 13:16:58;;;;;;;28.47;26.20;;;;;;;;;;5130549;27;20490;-76
2022/12/21 13:19:28;;;;;;;27.20;24.73;;;;;;;;;;5130511;27;20439;-74
2022/12/21 13:21:58;;;;;;;28.80;26.40;;;;;;;;;;5130328;27;20441;-75
2022/12/21 13:24:29;;;;;;;25.43;23.23;;;;;;;;;;5129900;27;20483;-74
2022/12/21 13:26:58;;;;;;;25.80;23.97;;;;;;;;;;5130089;27;20448;-74
2022/12/21 13:29:27;;;;;;;28.17;25.70;;;;;;;;;;5130530;27;20503;-74
2022/12/21 13:31:56;;;;;;;28.53;26.33;;;;;;;;;;5129935;27;20429;-75
2022/12/21 13:34:25;;;;;;;27.23;24.57;;;;;;;;;;5129615;27;20472;-74
2022/12/21 13:36:54;;;;;;;27.67;25.37;;;;;;;;;;5129904;27;20497;-75
2022/12/21 13:39:24;;;;;;;26.57;24.57;;;;;;;;;;5130083;27;20414;-75
2022/12/21 13:41:54;;;;;;;27.30;24.80;;;;;;;;;;5129665;27;20897;-75
2022/12/21 13:44:27;;;;;;;26.23;24.23;;;;;;;;;;5120258;27;20902;-74
2022/12/21 13:46:55;;;;;;;27.60;25.47;;;;;;;;;;5116165;27;20492;-74
2022/12/21 13:49:25;;;;;;;28.23;25.97;;;;;;;;;;5116147;28;20512;-75
2022/12/21 13:51:55;;;;;;;27.23;25.07;;;;;;;;;;5115767;27;20970;-75
2022/12/21 13:54:26;;;;;;;30.93;27.97;;;;;;;;;;5115190;28;20512;-74
2022/12/21 13:56:58;;;;;;;27.93;25.80;;;;;;;;;;5115730;28;20512;-74
2022/12/21 13:59:29;;;;;;;32.67;29.87;;;;;;;;;;5116100;28;20458;-74
2022/12/21 14:02:00;;;;;;;33.87;30.67;;;;;;;;;;5115753;28;20435;-75
2022/12/21 14:04:33;;;;;;;26.13;24.03;;;;;;;;;;5115331;28;20494;-74
2022/12/21 14:07:15;;;;;;;27.43;25.00;;;;;;;;;;5115749;28;20456;-75
2022/12/21 14:09:51;;;;;;;26.13;23.60;;;;;;;;;;5113185;28;20818;-74
2022/12/21 14:12:22;;;;;;;25.57;23.23;;;;;;;;;;5115550;28;20461;-75
2022/12/21 14:14:58;;;;;;;26.30;24.27;;;;;;;;;;5114952;28;20425;-75
2022/12/21 14:17:28;;;;;;;27.20;24.83;;;;;;;;;;5114789;27;20482;-74
2022/12/21 14:19:56;;;;;;;25.60;23.70;;;;;;;;;;5115913;28;20476;-77
2022/12/21 14:22:36;;;;;;;26.90;24.37;;;;;;;;;;5115582;28;20513;-77
2022/12/21 14:25:09;;;;;;;26.90;24.40;;;;;;;;;;5115039;28;20431;-77
2022/12/21 14:27:36;;;;;;;24.50;22.70;;;;;;;;;;5094977;28;20437;-77
2022/12/21 14:30:14;;;;;;;27.80;25.50;;;;;;;;;;5095268;28;20436;-75
2022/12/21 14:32:41;;;;;;;25.90;23.40;;;;;;;;;;5094723;28;20488;-76
2022/12/21 14:35:23;;;;;;;27.47;24.97;;;;;;;;;;5094365;28;20501;-77
2022/12/21 14:38:05;;;;;;;26.70;24.00;;;;;;;;;;5094814;28;20956;-79
2022/12/21 14:40:53;;;;;;;31.43;26.13;;;;;;;;;;5098219;28;20395;-80